Time;durP1;ratioP1;P1;durP2;ratioP2;P2;SDS_P1;SDS_P2;PMS_P1;PMS_P2;Temp;Humidity;BMP_temperature;BMP_pressure;BME280_temperature;BME280_humidity;BME280_pressure;Samples;Min_cycle;Max_cycle;Signal;HPM_P1;HPM_P2
2022/05/19 00:00:00;;;;;;;6.22;4.30;;;;;;;12.12;59.14;100254.52;1753532;80;20955;-63
2022/05/19 00:02:27;;;;;;;7.37;4.10;;;;;;;12.06;59.38;100256.09;1756595;80;21593;-63
2022/05/19 00:04:56;;;;;;;7.25;4.35;;;;;;;12.16;59.43;100261.84;1755312;80;21443;-63
2022/05/19 00:07:23;;;;;;;8.28;4.33;;;;;;;12.12;59.23;100257.16;1750983;80;26981;-63
2022/05/19 00:09:52;;;;;;;6.28;4.40;;;;;;;12.03;59.20;100254.41;1760990;80;20942;-64
2022/05/19 00:12:20;;;;;;;5.67;4.90;;;;;;;12.12;59.04;100253.20;1755983;80;21428;-63
2022/05/19 00:14:49;;;;;;;7.65;4.42;;;;;;;12.10;58.80;100249.77;1753451;80;21446;-66
2022/05/19 00:17:15;;;;;;;5.40;3.67;;;;;;;12.02;58.94;100254.50;1755976;80;21637;-66
2022/05/19 00:19:42;;;;;;;6.87;3.92;;;;;;;12.05;59.11;100249.08;1771119;79;21821;-67
2022/05/19 00:22:08;;;;;;;5.78;3.83;;;;;;;12.08;59.13;100252.92;1749973;79;21484;-63
2022/05/19 00:24:35;;;;;;;4.33;3.90;;;;;;;12.14;58.78;100244.77;1755405;79;21427;-63
2022/05/19 00:27:03;;;;;;;5.23;3.77;;;;;;;12.05;58.72;100244.70;1756130;79;21585;-64
2022/05/19 00:29:30;;;;;;;6.00;3.60;;;;;;;12.11;58.47;100246.23;1764347;79;21509;-63
2022/05/19 00:31:57;;;;;;;3.83;3.45;;;;;;;12.01;58.53;100241.75;1755090;79;22342;-63
2022/05/19 00:34:23;;;;;;;6.78;3.50;;;;;;;11.98;58.43;100248.91;1761136;79;21469;-63
2022/05/19 00:37:01;;;;;;;11.03;3.52;;;;;;;11.81;59.10;100251.73;1750602;80;21507;-64
2022/05/19 00:39:28;;;;;;;5.87;3.05;;;;;;;11.91;59.31;100252.73;1761149;80;21585;-64
2022/05/19 00:44:41;;;;;;;5.25;3.33;;;;;;;11.87;59.20;100260.71;1757336;80;22056;-65
2022/05/19 00:47:20;;;;;;;3.47;2.95;;;;;;;11.79;59.25;100258.84;1749590;79;21555;-65
2022/05/19 00:49:46;;;;;;;4.30;2.85;;;;;;;11.68;59.29;100256.60;1755210;80;21669;-65
2022/05/19 00:52:30;;;;;;;3.40;2.80;;;;;;;11.68;59.52;100257.07;1758551;80;21490;-65
2022/05/19 00:55:11;;;;;;;4.08;2.85;;;;;;;11.69;59.59;100256.98;1762085;79;21514;-66
2022/05/19 00:57:43;;;;;;;3.33;2.70;;;;;;;11.67;59.61;100252.23;1749804;79;21511;-65
2022/05/19 01:00:15;;;;;;;4.10;3.05;;;;;;;11.63;59.64;100259.01;1752533;80;20990;-65
2022/05/19 01:02:51;;;;;;;3.33;3.10;;;;;;;11.66;59.36;100254.48;1752769;79;21423;-65
2022/05/19 01:05:29;;;;;;;3.17;2.70;;;;;;;11.50;59.61;100256.81;1755062;79;21617;-66
2022/05/19 01:08:31;;;;;;;3.92;2.52;;;;;;;11.46;60.15;100253.05;1751916;79;21441;-65
2022/05/19 01:10:58;;;;;;;4.47;2.70;;;;;;;11.47;60.26;100261.33;1727012;79;21938;-66
2022/05/19 01:13:30;;;;;;;3.58;2.58;;;;;;;11.60;59.64;100260.43;1764839;79;21017;-66
2022/05/19 01:15:54;;;;;;;4.03;3.12;;;;;;;11.60;59.46;100259.11;1745272;80;21430;-65
2022/05/19 01:18:21;;;;;;;5.33;3.00;;;;;;;11.58;59.48;100255.67;1757440;80;21052;-65
2022/05/19 01:20:48;;;;;;;5.35;2.70;;;;;;;11.43;59.74;100257.09;1754808;80;21587;-65
2022/05/19 01:23:29;;;;;;;4.90;2.83;;;;;;;11.41;59.76;100255.83;1754362;80;21869;-65
2022/05/19 01:26:37;;;;;;;4.35;2.80;;;;;;;11.60;59.57;100254.72;1747483;80;21391;-66
2022/05/19 01:29:05;;;;;;;3.60;3.15;;;;;;;11.59;59.51;100256.94;1750979;80;21565;-65
2022/05/19 01:31:55;;;;;;;3.60;3.00;;;;;;;11.48;59.42;100261.28;1723440;81;21483;-65
2022/05/19 01:34:26;;;;;;;6.05;3.27;;;;;;;11.28;59.77;100259.39;1749838;80;21665;-64
2022/05/19 01:36:52;;;;;;;3.42;3.12;;;;;;;11.33;59.74;100254.41;1743388;80;21905;-63
2022/05/19 01:39:27;;;;;;;3.72;2.92;;;;;;;11.37;59.78;100257.33;1745154;80;21627;-64
2022/05/19 01:42:18;;;;;;;3.35;2.95;;;;;;;11.46;59.57;100255.68;1677337;83;21562;-63
2022/05/19 01:44:56;;;;;;;4.83;2.83;;;;;;;11.32;59.56;100264.52;1755844;80;21486;-65
2022/05/19 01:47:40;;;;;;;4.22;3.45;;;;;;;11.42;59.82;100259.34;1716639;80;21533;-63
2022/05/19 01:50:31;;;;;;;4.10;2.77;;;;;;;11.26;59.64;100259.91;1742038;80;21519;-64
2022/05/19 01:53:28;;;;;;;6.60;3.60;;;;;;;11.20;59.76;100256.16;1740882;80;21468;-63
2022/05/19 01:56:06;;;;;;;5.50;3.17;;;;;;;11.18;59.78;100255.35;1749696;80;21085;-64
2022/05/19 01:59:13;;;;;;;5.35;3.50;;;;;;;11.03;60.42;100265.95;1752155;80;21424;-64
2022/05/19 02:01:44;;;;;;;7.92;3.30;;;;;;;11.23;59.88;100261.79;1745292;80;21553;-64
2022/05/19 02:04:32;;;;;;;5.85;3.80;;;;;;;11.21;59.72;100261.84;1755821;80;21948;-64
2022/05/19 02:07:03;;;;;;;4.60;3.75;;;;;;;11.09;59.85;100270.15;1750348;80;21510;-64
2022/05/19 02:09:35;;;;;;;4.90;3.55;;;;;;;11.02;59.92;100283.11;1751556;80;21542;-63
2022/05/19 02:12:03;;;;;;;3.92;3.33;;;;;;;11.10;60.04;100278.00;1757428;80;21573;-63
2022/05/19 02:14:39;;;;;;;8.48;4.08;;;;;;;11.10;60.32;100281.09;1746146;80;21601;-63
2022/05/19 02:17:08;;;;;;;6.10;3.72;;;;;;;11.13;60.08;100274.85;1746349;80;21867;-64
2022/05/19 02:19:43;;;;;;;5.35;4.15;;;;;;;11.06;60.15;100275.08;1768827;80;21609;-63
2022/05/19 02:22:13;;;;;;;5.08;3.77;;;;;;;11.08;60.02;100281.61;1755051;80;21476;-63
2022/05/19 02:24:45;;;;;;;5.87;4.12;;;;;;;10.83;60.43;100279.81;1763376;80;21528;-63
2022/05/19 02:27:32;;;;;;;7.45;4.37;;;;;;;10.87;60.94;100289.32;1747600;80;21399;-63
2022/05/19 02:30:03;;;;;;;8.83;4.58;;;;;;;11.01;60.42;100281.41;1760938;80;22182;-63
2022/05/19 02:32:30;;;;;;;10.58;4.67;;;;;;;10.91;60.97;100286.98;1756294;80;21481;-63
2022/05/19 02:34:57;;;;;;;7.15;4.53;;;;;;;11.20;60.14;100279.84;1749209;80;21526;-63
2022/05/19 02:37:23;;;;;;;6.40;4.90;;;;;;;11.17;59.77;100285.23;1754959;80;21510;-63
2022/05/19 02:39:50;;;;;;;7.58;5.87;;;;;;;11.05;59.95;100285.19;1760398;80;21018;-63
2022/05/19 02:42:18;;;;;;;9.73;5.08;;;;;;;11.10;59.85;100289.84;1757821;80;21757;-63
2022/05/19 02:44:45;;;;;;;7.60;4.43;;;;;;;11.15;59.88;100290.12;1763714;80;20934;-63
2022/05/19 02:47:11;;;;;;;10.95;5.20;;;;;;;11.21;59.76;100289.94;1756247;80;21523;-63
2022/05/19 02:49:38;;;;;;;8.20;5.10;;;;;;;11.23;59.72;100288.11;1759968;80;21530;-64
2022/05/19 02:52:06;;;;;;;6.95;4.95;;;;;;;11.12;59.76;100291.58;1755428;80;21575;-65
2022/05/19 02:54:33;;;;;;;;;;;;;;;11.09;59.84;100291.20;1767166;80;21868;-65
2022/05/19 02:56:59;;;;;;;7.45;5.78;;;;;;;11.19;59.80;100297.88;1753247;80;20289;-64
2022/05/19 02:59:26;;;;;;;9.88;5.62;;;;;;;11.06;59.92;100297.91;1763907;80;21435;-64
2022/05/19 03:01:53;;;;;;;11.03;5.80;;;;;;;11.00;60.30;100294.14;1759904;80;20959;-64
2022/05/19 03:04:20;;;;;;;9.68;5.65;;;;;;;11.08;60.46;100294.30;1758963;80;21494;-66
2022/05/19 03:06:46;;;;;;;13.80;6.83;;;;;;;11.13;60.19;100292.81;1755028;80;21845;-64
2022/05/19 03:09:13;;;;;;;12.43;6.45;;;;;;;11.05;60.24;100297.48;1752608;80;21641;-64
2022/05/19 03:11:41;;;;;;;15.13;6.78;;;;;;;11.12;60.18;100299.47;1758517;80;21554;-64
2022/05/19 03:14:08;;;;;;;11.00;5.58;;;;;;;11.12;60.19;100302.95;1757928;80;22002;-63
2022/05/19 03:16:36;;;;;;;8.58;5.22;;;;;;;11.18;60.42;100307.99;1752826;80;21532;-63
2022/05/19 03:19:03;;;;;;;9.78;5.92;;;;;;;11.24;60.34;100303.82;1745034;80;21801;-64
2022/05/19 03:21:30;;;;;;;11.15;6.42;;;;;;;11.33;60.15;100305.75;1759541;80;21625;-64
2022/05/19 03:23:56;;;;;;;10.48;6.15;;;;;;;11.43;59.89;100298.80;1758715;79;21487;-64
2022/05/19 03:26:23;;;;;;;11.35;6.70;;;;;;;11.49;59.46;100303.83;1749653;79;21471;-65
2022/05/19 03:28:51;;;;;;;12.23;7.03;;;;;;;11.38;59.65;100302.51;1751777;80;21596;-66
2022/05/19 03:31:18;;;;;;;12.05;6.37;;;;;;;11.56;59.26;100306.23;1762664;80;21836;-66
2022/05/19 03:33:45;;;;;;;9.50;6.72;;;;;;;11.57;59.11;100301.38;1756273;79;21100;-66
2022/05/19 03:36:13;;;;;;;11.40;6.65;;;;;;;11.71;59.04;100307.45;1754139;79;20947;-66
2022/05/19 03:38:40;;;;;;;10.03;6.37;;;;;;;11.83;58.49;100307.01;1755743;79;21553;-66
2022/05/19 03:41:07;;;;;;;15.13;7.42;;;;;;;11.85;58.14;100308.66;1762558;79;21498;-66
2022/05/19 03:43:34;;;;;;;18.37;7.78;;;;;;;11.87;58.30;100311.24;1755425;80;21889;-66
2022/05/19 03:46:02;;;;;;;14.25;6.85;;;;;;;11.71;58.15;100310.94;1763336;80;20998;-66
2022/05/19 03:48:36;;;;;;;14.83;7.17;;;;;;;11.80;57.92;100317.66;1756756;80;21594;-66
2022/05/19 03:51:04;;;;;;;13.00;7.22;;;;;;;11.93;57.82;100317.63;1759674;79;21175;-66
2022/05/19 03:53:31;;;;;;;10.32;6.90;;;;;;;12.06;57.79;100316.70;1748727;79;21569;-66
2022/05/19 03:55:58;;;;;;;12.60;7.12;;;;;;;12.26;57.34;100323.83;1763348;79;21491;-66
2022/05/19 03:58:25;;;;;;;16.62;7.28;;;;;;;12.34;57.30;100316.93;1750211;79;21454;-66
2022/05/19 04:00:52;;;;;;;11.73;7.85;;;;;;;12.36;57.06;100325.67;1763160;80;20997;-66
2022/05/19 04:03:18;;;;;;;17.70;8.30;;;;;;;12.37;57.06;100322.09;1755508;80;21584;-66
2022/05/19 04:05:45;;;;;;;11.88;7.72;;;;;;;12.45;56.78;100327.92;1763409;80;21435;-66
2022/05/19 04:08:13;;;;;;;;;;;;;;;12.48;56.56;100329.59;1754465;79;21976;-65
2022/05/19 04:10:44;;;;;;;13.80;7.00;;;;;;;12.64;56.42;100329.39;1772107;79;20251;-65
2022/05/19 04:13:11;;;;;;;15.35;7.83;;;;;;;12.73;56.35;100334.73;1761821;80;21460;-65
2022/05/19 04:15:39;;;;;;;11.10;7.45;;;;;;;12.70;56.46;100333.56;1761253;80;21522;-66
2022/05/19 04:18:06;;;;;;;14.43;8.10;;;;;;;12.81;56.34;100339.25;1745339;80;21494;-66
2022/05/19 04:20:34;;;;;;;14.13;7.62;;;;;;;12.89;55.64;100334.98;1765554;80;21857;-66
2022/05/19 04:23:01;;;;;;;13.18;8.93;;;;;;;13.02;55.28;100338.35;1742563;80;21017;-66
2022/05/19 04:25:29;;;;;;;15.18;7.75;;;;;;;12.93;55.30;100348.44;1753673;80;21042;-64
2022/05/19 04:27:57;;;;;;;11.33;7.78;;;;;;;13.00;55.18;100344.63;1744197;80;21508;-66
2022/05/19 04:30:25;;;;;;;12.63;7.47;;;;;;;13.09;55.26;100350.84;1718092;82;21448;-64
2022/05/19 04:32:54;;;;;;;12.78;7.85;;;;;;;13.25;55.22;100345.30;1766272;80;22112;-64
2022/05/19 04:35:21;;;;;;;14.75;7.78;;;;;;;13.29;54.81;100349.14;1756074;80;21459;-65
2022/05/19 04:37:47;;;;;;;12.45;8.30;;;;;;;13.42;54.54;100349.88;1758995;80;21596;-65
2022/05/19 04:40:15;;;;;;;15.40;7.95;;;;;;;13.62;54.53;100343.73;1757053;80;21499;-65
2022/05/19 04:42:42;;;;;;;16.50;8.65;;;;;;;13.65;53.95;100357.27;1763747;80;21569;-64
2022/05/19 04:45:10;;;;;;;;;;;;;;;13.67;54.00;100359.37;1751386;80;21734;-64
2022/05/19 04:47:37;;;;;;;15.25;8.03;;;;;;;13.82;53.94;100352.55;1749821;80;28900;-65
2022/05/19 04:50:07;;;;;;;15.43;7.42;;;;;;;13.87;53.39;100358.97;1743951;80;21562;-65
2022/05/19 04:52:34;;;;;;;11.70;7.33;;;;;;;13.89;53.16;100364.56;1757727;80;21637;-64
2022/05/19 04:55:02;;;;;;;19.23;8.30;;;;;;;14.03;53.45;100357.32;1759226;80;21569;-65
2022/05/19 04:57:29;;;;;;;15.83;7.45;;;;;;;14.20;52.88;100353.89;1750686;80;21885;-62
2022/05/19 04:59:56;;;;;;;12.68;8.00;;;;;;;14.36;53.10;100354.91;1763797;80;21471;-61
2022/05/19 05:02:23;;;;;;;14.53;7.55;;;;;;;14.15;52.46;100361.21;1759412;80;21463;-62
2022/05/19 05:04:49;;;;;;;17.55;8.15;;;;;;;14.14;52.72;100359.01;1756848;80;21459;-62
2022/05/19 05:07:16;;;;;;;15.98;8.33;;;;;;;14.39;52.42;100349.48;1751346;80;21018;-67
2022/05/19 05:09:43;;;;;;;11.57;8.30;;;;;;;14.38;52.03;100354.36;1747457;80;21923;-66
2022/05/19 05:12:10;;;;;;;18.42;8.18;;;;;;;14.37;52.20;100360.60;1753319;80;21628;-64
2022/05/19 05:14:37;;;;;;;;;;;;;;;14.47;52.17;100354.88;1757015;80;21533;-65
2022/05/19 05:17:04;;;;;;;13.68;8.33;;;;;;;14.76;51.35;100356.13;1754827;80;20417;-67
2022/05/19 05:19:31;;;;;;;8.85;6.97;;;;;;;14.83;51.13;100359.36;1693943;84;21514;-66
2022/05/19 05:21:59;;;;;;;12.40;6.62;;;;;;;14.97;50.90;100359.52;1683219;82;21905;-68
2022/05/19 05:24:26;;;;;;;12.33;8.20;;;;;;;14.94;51.02;100359.69;1745461;80;21124;-70
2022/05/19 05:29:47;;;;;;;14.20;7.78;;;;;;;14.58;53.91;100356.11;1786129;78;23191;-66
2022/05/19 05:32:13;;;;;;;12.47;7.85;;;;;;;15.57;50.16;100357.32;1764341;79;21505;-64
2022/05/19 05:34:42;;;;;;;15.93;7.42;;;;;;;15.58;50.49;100359.05;1766381;79;21869;-61
2022/05/19 05:37:08;;;;;;;15.28;8.40;;;;;;;15.60;50.75;100361.63;1766672;80;21033;-66
2022/05/19 05:39:36;;;;;;;14.75;8.18;;;;;;;15.70;49.72;100361.52;1764801;79;21045;-66
2022/05/19 05:42:04;;;;;;;10.23;7.20;;;;;;;15.82;50.46;100360.51;1771008;79;21724;-66
2022/05/19 05:44:33;;;;;;;10.95;7.97;;;;;;;15.90;50.15;100364.48;1766770;80;21482;-65
2022/05/19 05:47:00;;;;;;;11.13;7.80;;;;;;;15.96;50.30;100361.48;1771055;79;21995;-66
2022/05/19 05:49:27;;;;;;;12.68;7.42;;;;;;;16.07;50.01;100362.24;1728908;81;22180;-60
2022/05/19 05:51:55;;;;;;;17.62;9.05;;;;;;;16.12;50.06;100364.63;1716585;82;21550;-63
2022/05/19 05:54:22;;;;;;;15.05;8.50;;;;;;;16.25;49.31;100367.48;1717494;82;21573;-60
2022/05/19 05:56:48;;;;;;;14.95;7.90;;;;;;;16.31;49.68;100366.69;1720442;82;21435;-61
2022/05/19 05:59:15;;;;;;;15.98;7.85;;;;;;;16.51;48.86;100367.36;1717181;82;22179;-62
2022/05/19 06:01:42;;;;;;;11.80;7.92;;;;;;;16.61;48.38;100369.88;1726034;82;21641;-63
2022/05/19 06:04:09;;;;;;;14.15;8.30;;;;;;;16.68;48.42;100370.39;1725818;82;21555;-61
2022/05/19 06:06:36;;;;;;;13.88;7.40;;;;;;;16.84;48.01;100370.39;1720751;82;21523;-61
2022/05/19 06:09:03;;;;;;;20.12;8.88;;;;;;;16.90;48.41;100375.38;1714828;82;21608;-64
2022/05/19 06:11:29;;;;;;;10.83;7.40;;;;;;;17.09;48.37;100374.69;1708028;82;21938;-59
2022/05/19 06:13:58;;;;;;;15.30;7.47;;;;;;;17.16;47.65;100381.84;1724505;82;21432;-60
2022/05/19 06:16:25;;;;;;;14.63;6.72;;;;;;;17.23;47.28;100377.00;1725971;82;21450;-60
2022/05/19 06:18:52;;;;;;;14.43;7.42;;;;;;;17.37;46.52;100376.20;1721608;82;21851;-60
2022/05/19 06:21:19;;;;;;;12.55;7.78;;;;;;;17.27;46.20;100376.75;1720290;82;21561;-60
2022/05/19 06:23:46;;;;;;;16.07;7.67;;;;;;;17.23;46.27;100375.19;1717847;82;21410;-61
2022/05/19 06:26:14;;;;;;;11.08;7.58;;;;;;;17.24;45.73;100385.38;1719078;82;21479;-60
2022/05/19 06:28:42;;;;;;;10.68;7.50;;;;;;;17.32;45.72;100388.42;1717015;82;21018;-63
2022/05/19 06:31:08;;;;;;;12.60;6.67;;;;;;;17.39;45.40;100372.50;1702833;82;21554;-60
2022/05/19 06:33:36;;;;;;;14.03;7.10;;;;;;;17.69;45.56;100383.58;1699686;82;21567;-60
2022/05/19 06:36:05;;;;;;;11.53;7.42;;;;;;;17.86;44.39;100382.09;1698666;82;21530;-60
2022/05/19 06:38:32;;;;;;;11.80;6.42;;;;;;;17.96;44.62;100386.85;1692313;83;21536;-63
2022/05/19 06:43:47;;;;;;;13.75;6.65;;;;;;;18.32;43.52;100385.02;1696121;82;21595;-61
2022/05/19 06:46:14;;;;;;;8.48;5.05;;;;;;;18.48;43.16;100378.25;1692336;83;21515;-63
2022/05/19 06:48:41;;;;;;;12.70;5.67;;;;;;;18.23;42.91;100381.14;1702710;82;21815;-61
2022/05/19 06:51:07;;;;;;;15.85;6.15;;;;;;;18.21;42.16;100380.84;1707078;82;21503;-61
2022/05/19 06:53:36;;;;;;;10.23;6.28;;;;;;;18.26;42.83;100384.92;1675563;83;21130;-60
2022/05/19 06:56:08;;;;;;;11.90;6.55;;;;;;;18.46;42.13;100385.48;1682005;83;21522;-61
2022/05/19 06:58:33;;;;;;;10.45;5.87;;;;;;;18.83;41.89;100379.12;1671652;83;21486;-61
2022/05/19 07:01:00;;;;;;;10.40;5.87;;;;;;;18.95;41.47;100386.77;1686440;83;21968;-61
2022/05/19 07:03:27;;;;;;;10.10;6.65;;;;;;;19.09;40.94;100385.39;1716867;82;21420;-61
2022/05/19 07:05:54;;;;;;;14.13;5.92;;;;;;;19.22;40.82;100378.28;1739643;80;21515;-61
2022/05/19 07:08:21;;;;;;;13.05;7.17;;;;;;;19.34;40.89;100385.08;1733786;80;21693;-61
2022/05/19 07:10:47;;;;;;;21.62;6.70;;;;;;;18.84;41.22;100352.87;1736145;80;21546;-62
2022/05/19 07:13:14;;;;;;;15.93;6.90;;;;;;;19.05;40.80;100382.56;1741518;80;21818;-62
2022/05/19 07:15:41;;;;;;;10.45;6.15;;;;;;;19.05;41.00;100380.74;1732431;80;21531;-60
2022/05/19 07:18:12;;;;;;;9.70;6.17;;;;;;;19.38;40.42;100371.45;1733187;80;21479;-62
2022/05/19 07:20:44;;;;;;;8.78;6.10;;;;;;;19.23;40.91;100368.47;1742297;80;21542;-60
2022/05/19 07:23:15;;;;;;;7.58;5.25;;;;;;;19.30;40.12;100374.25;1743563;80;21561;-59
2022/05/19 07:25:43;;;;;;;9.65;4.10;;;;;;;19.34;39.29;100372.59;1739931;80;21866;-60
2022/05/19 07:28:10;;;;;;;8.60;3.90;;;;;;;19.44;38.89;100362.18;1739729;80;21491;-59
2022/05/19 07:30:37;;;;;;;7.20;3.77;;;;;;;19.55;38.82;100372.09;1700989;82;21575;-63
2022/05/19 07:33:06;;;;;;;6.03;4.33;;;;;;;19.67;38.66;100375.25;1736844;81;21583;-59
2022/05/19 07:35:34;;;;;;;4.95;3.80;;;;;;;19.80;39.15;100372.63;1745382;80;21093;-63
2022/05/19 07:38:02;;;;;;;7.45;3.37;;;;;;;20.05;38.42;100362.41;1747116;80;23017;-61
2022/05/19 07:40:29;;;;;;;4.58;3.22;;;;;;;20.02;38.61;100367.95;1747227;81;21507;-61
2022/05/19 07:43:35;;;;;;;7.70;4.05;;;;;;;20.18;37.92;100371.23;1754574;80;21570;-61
2022/05/19 07:45:25;;;;;;;6.08;3.77;;;;;;;19.99;37.33;100339.67;1730026;80;21716;-61
2022/05/19 07:47:52;;;;;;;8.33;3.45;;;;;;;20.18;37.51;100358.38;1706663;82;21023;-60
2022/05/19 07:50:19;;;;;;;4.12;3.17;;;;;;;20.23;37.35;100365.10;1743756;80;21922;-60
2022/05/19 07:52:47;;;;;;;4.55;1.98;;;;;;;20.25;36.27;100359.66;1747168;80;21487;-61
2022/05/19 07:55:14;;;;;;;3.30;1.80;;;;;;;20.29;37.17;100360.29;1752064;81;21432;-60
2022/05/19 07:57:42;;;;;;;3.77;1.90;;;;;;;20.47;35.52;100355.42;1746569;80;21554;-59
2022/05/19 08:00:10;;;;;;;5.03;2.17;;;;;;;20.57;34.75;100348.45;1740636;80;21542;-59
2022/05/19 08:02:40;;;;;;;3.83;1.90;;;;;;;20.61;34.88;100350.80;1747876;80;21906;-61
2022/05/19 08:05:08;;;;;;;3.83;2.50;;;;;;;20.65;35.39;100355.44;1751856;80;21593;-60
2022/05/19 08:07:35;;;;;;;5.47;2.85;;;;;;;20.78;34.59;100356.23;1747798;81;21569;-60
2022/05/19 08:10:21;;;;;;;11.53;2.77;;;;;;;20.83;34.87;100347.02;1751134;80;22009;-60
2022/05/19 08:15:35;;;;;;;9.05;2.72;;;;;;;20.98;34.53;100340.52;1750104;80;22094;-61
2022/05/19 08:18:12;;;;;;;6.55;3.90;;;;;;;21.02;34.60;100339.80;1744034;80;21597;-61
2022/05/19 08:20:47;;;;;;;10.85;4.42;;;;;;;21.05;34.58;100343.59;1751226;80;21570;-60
2022/05/19 08:23:18;;;;;;;11.50;4.67;;;;;;;21.04;34.24;100341.41;1748195;80;21491;-60
2022/05/19 08:25:46;;;;;;;7.87;4.90;;;;;;;20.85;34.79;100340.61;1750931;81;21476;-64
2022/05/19 08:28:14;;;;;;;7.28;4.25;;;;;;;21.03;34.77;100337.52;1740212;80;21909;-61
2022/05/19 08:30:43;;;;;;;5.92;4.08;;;;;;;20.98;35.06;100329.83;1757399;80;21462;-63
2022/05/19 08:33:11;;;;;;;5.40;2.90;;;;;;;21.07;35.11;100332.30;1764404;80;21061;-66
2022/05/19 08:35:38;;;;;;;3.77;2.80;;;;;;;20.99;33.97;100332.39;1767718;80;21058;-65
2022/05/19 08:38:05;;;;;;;9.05;3.92;;;;;;;20.98;33.86;100325.36;1772902;80;21608;-65
2022/05/19 08:40:37;;;;;;;7.72;3.87;;;;;;;21.00;34.58;100317.19;1759253;80;22068;-66
2022/05/19 08:43:04;;;;;;;11.28;3.62;;;;;;;21.21;35.05;100325.43;1774413;80;21561;-60
2022/05/19 08:45:34;;;;;;;4.05;2.95;;;;;;;21.25;34.79;100324.22;1759701;80;21588;-60
2022/05/19 08:48:06;;;;;;;5.33;2.65;;;;;;;21.34;34.15;100318.63;1704798;83;21148;-60
2022/05/19 08:50:51;;;;;;;5.87;2.08;;;;;;;21.34;33.41;100322.17;1690062;83;21554;-60
2022/05/19 08:53:26;;;;;;;4.50;2.02;;;;;;;21.36;33.95;100326.92;1722045;82;21932;-61
2022/05/19 08:56:00;;;;;;;3.85;2.35;;;;;;;21.70;34.14;100324.78;1727781;82;21511;-61
2022/05/19 08:58:50;;;;;;;6.12;2.15;;;;;;;21.83;33.49;100311.30;1728422;82;21034;-60
2022/05/19 09:01:24;;;;;;;5.22;1.95;;;;;;;21.69;34.13;100327.11;1698619;82;21497;-61
2022/05/19 09:04:26;;;;;;;1.92;1.72;;;;;;;21.93;33.72;100327.84;1706901;82;21578;-59
2022/05/19 09:10:34;;;;;;;4.35;1.77;;;;;;;22.21;32.73;100314.05;1676582;82;21569;-60
2022/05/19 09:13:34;;;;;;;3.17;1.90;;;;;;;22.51;32.99;100312.95;1706090;83;21002;-59
2022/05/19 09:16:18;;;;;;;7.97;2.00;;;;;;;22.67;32.36;100310.33;1736365;82;21528;-61
2022/05/19 09:19:03;;;;;;;1.77;1.65;;;;;;;22.83;31.16;100309.42;1708393;82;21435;-59
2022/05/19 09:21:30;;;;;;;4.05;1.87;;;;;;;22.72;31.03;100305.45;1709943;82;21974;-62
2022/05/19 09:23:56;;;;;;;2.37;2.17;;;;;;;22.47;31.77;100258.38;1698824;82;21528;-58
2022/05/19 09:26:47;;;;;;;3.77;2.05;;;;;;;22.95;31.14;100304.84;1707694;82;21655;-57
2022/05/19 09:29:18;;;;;;;13.68;3.20;;;;;;;22.79;31.74;100311.97;1698021;82;21494;-60
2022/05/19 09:31:54;;;;;;;3.47;2.22;;;;;;;23.03;31.84;100298.84;1686492;84;21485;-61
2022/05/19 09:34:28;;;;;;;6.30;2.45;;;;;;;23.02;31.32;100304.70;1728711;80;21950;-60
2022/05/19 09:37:03;;;;;;;3.42;1.87;;;;;;;23.05;30.95;100307.12;1728830;80;21502;-60
2022/05/19 09:39:33;;;;;;;2.65;1.60;;;;;;;23.15;30.53;100307.23;1713308;82;21511;-60
2022/05/19 09:42:05;;;;;;;2.90;2.25;;;;;;;23.12;30.19;100292.73;1732793;80;21514;-60
2022/05/19 09:44:34;;;;;;;5.60;2.55;;;;;;;23.37;30.84;100287.94;1733182;80;21041;-59
2022/05/19 09:47:09;;;;;;;4.58;2.10;;;;;;;23.56;30.23;100289.88;1730188;81;21843;-58
2022/05/19 09:49:44;;;;;;;3.35;1.82;;;;;;;23.62;29.37;100280.80;1730339;80;21535;-58
2022/05/19 09:52:08;;;;;;;3.08;2.10;;;;;;;23.63;29.32;100281.14;1730860;81;21814;-58
2022/05/19 09:54:34;;;;;;;4.00;2.15;;;;;;;23.45;29.70;100276.91;1729692;80;21419;-58
2022/05/19 09:57:13;;;;;;;6.92;2.67;;;;;;;23.65;29.77;100281.86;1734765;80;21528;-58
2022/05/19 09:59:48;;;;;;;4.17;2.72;;;;;;;23.84;29.61;100282.96;1712564;82;21571;-58
2022/05/19 10:02:32;;;;;;;5.00;2.40;;;;;;;23.90;29.58;100271.20;1733916;80;21466;-58
2022/05/19 10:05:01;;;;;;;4.87;2.90;;;;;;;24.11;28.96;100270.27;1728781;81;21515;-58
2022/05/19 10:07:37;;;;;;;6.28;3.72;;;;;;;24.20;28.92;100266.72;1727429;82;21450;-59
2022/05/19 10:10:06;;;;;;;8.15;3.17;;;;;;;24.19;29.12;100266.89;1729935;80;21570;-59
2022/05/19 10:12:39;;;;;;;4.30;2.65;;;;;;;24.34;28.90;100272.22;1708457;81;22107;-59
2022/05/19 10:15:13;;;;;;;4.95;2.85;;;;;;;24.32;27.64;100272.84;1727127;80;21515;-60
2022/05/19 10:18:06;;;;;;;12.75;3.58;;;;;;;24.32;28.73;100263.45;1736236;80;21506;-61
2022/05/19 10:20:37;;;;;;;8.38;3.40;;;;;;;24.36;28.25;100258.64;1719421;80;21560;-60
2022/05/19 10:23:29;;;;;;;10.78;3.05;;;;;;;24.34;28.58;100258.78;1738739;80;20986;-60
2022/05/19 10:26:29;;;;;;;5.10;2.42;;;;;;;24.29;28.18;100255.65;1730341;80;21447;-59
2022/05/19 10:32:09;;;;;;;4.70;2.98;;;;;;;24.36;28.28;100255.45;1761079;80;21567;-61
2022/05/19 10:34:52;;;;;;;8.98;2.90;;;;;;;24.37;27.96;100242.35;1758990;80;21479;-61
2022/05/19 10:37:43;;;;;;;7.58;3.30;;;;;;;24.18;28.05;100248.55;1751185;80;21609;-61
2022/05/19 10:40:41;;;;;;;8.63;3.02;;;;;;;24.37;28.05;100249.07;1764714;80;21802;-61
2022/05/19 10:43:27;;;;;;;5.33;2.70;;;;;;;24.57;27.25;100234.34;1738465;80;21498;-60
2022/05/19 10:45:57;;;;;;;5.10;2.00;;;;;;;24.81;27.15;100231.23;1739226;80;21435;-59
2022/05/19 10:48:51;;;;;;;3.47;1.90;;;;;;;24.76;27.04;100238.36;1740028;80;21583;-60
2022/05/19 10:51:54;;;;;;;4.12;1.75;;;;;;;24.71;27.03;100231.21;1753019;80;21379;-60
2022/05/19 10:55:03;;;;;;;3.17;1.67;;;;;;;24.75;26.95;100234.47;1765236;80;21904;-67
2022/05/19 10:57:42;;;;;;;4.95;1.55;;;;;;;24.65;26.39;100237.17;1762487;80;21585;-62
2022/05/19 11:00:28;;;;;;;2.83;1.47;;;;;;;24.57;27.06;100235.70;1748459;80;21605;-62
2022/05/19 11:03:31;;;;;;;4.55;1.85;;;;;;;24.69;27.29;100227.81;1764531;80;21454;-62
2022/05/19 11:06:38;;;;;;;2.08;1.20;;;;;;;24.84;27.07;100226.89;1759299;80;21456;-60
2022/05/19 11:09:27;;;;;;;3.25;1.20;;;;;;;24.90;26.26;100223.61;1752885;80;22026;-62
2022/05/19 11:12:02;;;;;;;2.40;1.22;;;;;;;24.80;25.50;100223.63;1754828;80;21522;-62
2022/05/19 11:14:47;;;;;;;4.60;1.40;;;;;;;24.85;26.68;100218.69;1759278;80;21545;-61
2022/05/19 11:17:49;;;;;;;3.08;1.60;;;;;;;24.84;25.59;100214.78;1756256;80;21531;-61
2022/05/19 11:20:28;;;;;;;2.85;1.37;;;;;;;24.94;26.39;100218.80;1754579;80;21527;-67
2022/05/19 11:23:09;;;;;;;2.37;1.40;;;;;;;25.31;25.92;100213.49;1762684;80;21971;-68
2022/05/19 11:28:45;;;;;;;3.25;1.35;;;;;;;25.21;24.59;100204.08;1764067;80;21521;-61
2022/05/19 11:31:15;;;;;;;1.25;1.10;;;;;;;25.27;25.01;100203.19;1739947;80;21008;-62
2022/05/19 11:33:48;;;;;;;2.52;1.07;;;;;;;25.40;25.30;100210.42;1737739;80;21499;-67
2022/05/19 11:36:37;;;;;;;1.82;1.20;;;;;;;25.35;24.90;100205.98;1730603;80;21813;-61
2022/05/19 11:39:15;;;;;;;4.03;0.90;;;;;;;25.28;25.03;100200.83;1737788;80;21519;-61
2022/05/19 11:41:43;;;;;;;2.80;1.27;;;;;;;25.15;25.00;100193.91;1733946;81;21496;-62
2022/05/19 11:44:22;;;;;;;1.40;0.82;;;;;;;25.29;25.69;100187.73;1699916;82;21058;-61
2022/05/19 11:47:08;;;;;;;1.45;0.80;;;;;;;25.51;26.10;100184.66;1736368;82;21520;-61
2022/05/19 11:55:45;;;;;;;1.47;1.00;;;;;;;25.90;25.44;100176.37;1735009;82;21436;-61
2022/05/19 11:58:21;;;;;;;1.82;0.80;;;;;;;25.72;24.38;100176.33;1732811;80;21556;-59
2022/05/19 12:01:00;;;;;;;3.75;0.95;;;;;;;25.57;24.70;100171.95;1730974;80;21542;-61
2022/05/19 12:04:02;;;;;;;2.08;0.68;;;;;;;25.43;25.08;100171.95;1723879;80;22114;-61
2022/05/19 12:06:37;;;;;;;1.20;0.90;;;;;;;25.56;24.95;100163.53;1730412;80;21107;-66
2022/05/19 12:09:16;;;;;;;1.42;0.80;;;;;;;25.50;25.36;100178.08;1671078;83;21611;-63
2022/05/19 12:11:52;;;;;;;1.15;0.70;;;;;;;25.51;25.01;100171.71;1739013;80;21411;-63
2022/05/19 12:14:38;;;;;;;3.60;0.90;;;;;;;25.30;24.84;100170.10;1671503;83;21573;-61